sensor_id;sensor_type;location;lat;lon;timestamp;temperature;humidity
5576;DHT22;2810;50.134;8.626;2023-10-13T00:01:05;16.20;99.90
5576;DHT22;2810;50.134;8.626;2023-10-13T00:03:32;16.20;99.90
5576;DHT22;2810;50.134;8.626;2023-10-13T00:05:58;16.10;99.90
5576;DHT22;2810;50.134;8.626;2023-10-13T00:08:28;16.10;99.90
5576;DHT22;2810;50.134;8.626;2023-10-13T00:10:54;16.10;99.90
5576;DHT22;2810;50.134;8.626;2023-10-13T00:13:26;16.10;99.90
5576;DHT22;2810;50.134;8.626;2023-10-13T00:15:52;16.00;99.90
5576;DHT22;2810;50.134;8.626;2023-10-13T00:18:27;16.00;99.90
5576;DHT22;2810;50.134;8.626;2023-10-13T00:20:58;16.10;99.90
5576;DHT22;2810;50.134;8.626;2023-10-13T00:23:24;16.00;99.90
5576;DHT22;2810;50.134;8.626;2023-10-13T00:25:52;16.00;99.90
5576;DHT22;2810;50.134;8.626;2023-10-13T00:28:24;16.00;99.90
5576;DHT22;2810;50.134;8.626;2023-10-13T00:30:51;16.10;99.90
5576;DHT22;2810;50.134;8.626;2023-10-13T00:33:18;16.10;99.90
5576;DHT22;2810;50.134;8.626;2023-10-13T00:35:49;16.20;99.90
5576;DHT22;2810;50.134;8.626;2023-10-13T00:38:17;16.10;99.90
5576;DHT22;2810;50.134;8.626;2023-10-13T00:40:44;16.10;99.90
5576;DHT22;2810;50.134;8.626;2023-10-13T00:43:16;16.10;99.90
5576;DHT22;2810;50.134;8.626;2023-10-13T00:45:52;16.10;99.90
5576;DHT22;2810;50.134;8.626;2023-10-13T00:48:30;16.10;99.90
5576;DHT22;2810;50.134;8.626;2023-10-13T00:51:03;16.10;99.90
5576;DHT22;2810;50.134;8.626;2023-10-13T00:53:31;16.10;99.90
5576;DHT22;2810;50.134;8.626;2023-10-13T00:56:02;16.10;99.90
5576;DHT22;2810;50.134;8.626;2023-10-13T00:58:35;16.10;99.90
5576;DHT22;2810;50.134;8.626;2023-10-13T01:01:04;16.10;99.90
5576;DHT22;2810;50.134;8.626;2023-10-13T01:03:47;16.10;99.90
5576;DHT22;2810;50.134;8.626;2023-10-13T01:06:20;16.10;99.90
5576;DHT22;2810;50.134;8.626;2023-10-13T01:08:46;16.10;99.90
5576;DHT22;2810;50.134;8.626;2023-10-13T01:11:17;16.10;99.90
5576;DHT22;2810;50.134;8.626;2023-10-13T01:13:42;16.10;99.90
5576;DHT22;2810;50.134;8.626;2023-10-13T01:16:08;16.10;99.90
5576;DHT22;2810;50.134;8.626;2023-10-13T01:18:34;16.00;99.90
5576;DHT22;2810;50.134;8.626;2023-10-13T01:21:12;16.00;99.90
5576;DHT22;2810;50.134;8.626;2023-10-13T01:23:41;16.00;99.90
5576;DHT22;2810;50.134;8.626;2023-10-13T01:26:07;16.00;99.90
5576;DHT22;2810;50.134;8.626;2023-10-13T01:28:34;16.00;99.90
5576;DHT22;2810;50.134;8.626;2023-10-13T01:31:12;16.00;99.90
5576;DHT22;2810;50.134;8.626;2023-10-13T01:33:41;16.00;99.90
5576;DHT22;2810;50.134;8.626;2023-10-13T01:36:07;16.00;99.90
5576;DHT22;2810;50.134;8.626;2023-10-13T01:38:34;16.00;99.90
5576;DHT22;2810;50.134;8.626;2023-10-13T01:41:04;16.00;99.90
5576;DHT22;2810;50.134;8.626;2023-10-13T01:43:29;15.90;99.90
5576;DHT22;2810;50.134;8.626;2023-10-13T01:45:55;15.90;99.90
5576;DHT22;2810;50.134;8.626;2023-10-13T01:48:20;16.00;99.90
5576;DHT22;2810;50.134;8.626;2023-10-13T01:50:46;16.00;99.90
5576;DHT22;2810;50.134;8.626;2023-10-13T01:53:14;16.00;99.90
5576;DHT22;2810;50.134;8.626;2023-10-13T01:55:42;16.00;99.90
5576;DHT22;2810;50.134;8.626;2023-10-13T01:58:09;16.10;99.90
5576;DHT22;2810;50.134;8.626;2023-10-13T02:00:40;16.00;99.90
5576;DHT22;2810;50.134;8.626;2023-10-13T02:03:10;16.00;99.90
5576;DHT22;2810;50.134;8.626;2023-10-13T02:05:45;16.00;99.90
5576;DHT22;2810;50.134;8.626;2023-10-13T02:08:14;16.00;99.90
5576;DHT22;2810;50.134;8.626;2023-10-13T02:10:48;16.00;99.90
5576;DHT22;2810;50.134;8.626;2023-10-13T02:13:14;16.00;99.90
5576;DHT22;2810;50.134;8.626;2023-10-13T02:15:43;16.00;99.90
5576;DHT22;2810;50.134;8.626;2023-10-13T02:18:16;16.00;99.90
5576;DHT22;2810;50.134;8.626;2023-10-13T02:20:52;15.90;99.90
5576;DHT22;2810;50.134;8.626;2023-10-13T02:23:21;16.30;99.90
5576;DHT22;2810;50.134;8.626;2023-10-13T02:25:47;16.00;99.90
5576;DHT22;2810;50.134;8.626;2023-10-13T02:28:13;16.00;99.90
5576;DHT22;2810;50.134;8.626;2023-10-13T02:30:42;16.00;99.90
5576;DHT22;2810;50.134;8.626;2023-10-13T02:33:12;15.90;99.90
5576;DHT22;2810;50.134;8.626;2023-10-13T02:35:38;15.90;99.90
5576;DHT22;2810;50.134;8.626;2023-10-13T02:38:09;15.90;99.90
5576;DHT22;2810;50.134;8.626;2023-10-13T02:40:38;15.90;99.90
5576;DHT22;2810;50.134;8.626;2023-10-13T02:43:04;15.90;99.90
5576;DHT22;2810;50.134;8.626;2023-10-13T02:45:32;15.90;99.90
5576;DHT22;2810;50.134;8.626;2023-10-13T02:48:01;16.00;99.90
5576;DHT22;2810;50.134;8.626;2023-10-13T02:50:42;15.90;99.90
5576;DHT22;2810;50.134;8.626;2023-10-13T02:53:11;15.80;99.90
5576;DHT22;2810;50.134;8.626;2023-10-13T02:55:49;15.80;99.90
5576;DHT22;2810;50.134;8.626;2023-10-13T02:58:15;15.80;99.90
5576;DHT22;2810;50.134;8.626;2023-10-13T03:00:40;15.80;99.90
5576;DHT22;2810;50.134;8.626;2023-10-13T03:03:06;15.90;99.90
5576;DHT22;2810;50.134;8.626;2023-10-13T03:05:34;15.80;99.90
5576;DHT22;2810;50.134;8.626;2023-10-13T03:08:00;15.80;99.90
5576;DHT22;2810;50.134;8.626;2023-10-13T03:10:29;16.00;99.90
5576;DHT22;2810;50.134;8.626;2023-10-13T03:12:55;15.80;99.90
5576;DHT22;2810;50.134;8.626;2023-10-13T03:15:20;15.80;99.90
5576;DHT22;2810;50.134;8.626;2023-10-13T03:17:54;15.80;99.90
5576;DHT22;2810;50.134;8.626;2023-10-13T03:20:20;15.90;99.90
5576;DHT22;2810;50.134;8.626;2023-10-13T03:22:57;15.80;99.90
5576;DHT22;2810;50.134;8.626;2023-10-13T03:25:22;15.80;99.90
5576;DHT22;2810;50.134;8.626;2023-10-13T03:27:55;15.90;99.90
5576;DHT22;2810;50.134;8.626;2023-10-13T03:30:21;15.80;99.90
5576;DHT22;2810;50.134;8.626;2023-10-13T03:32:49;15.80;99.90
5576;DHT22;2810;50.134;8.626;2023-10-13T03:35:19;15.90;99.90
5576;DHT22;2810;50.134;8.626;2023-10-13T03:37:53;15.90;99.90
5576;DHT22;2810;50.134;8.626;2023-10-13T03:40:20;15.80;99.90
5576;DHT22;2810;50.134;8.626;2023-10-13T03:42:52;15.80;99.90
5576;DHT22;2810;50.134;8.626;2023-10-13T03:45:33;15.80;99.90
5576;DHT22;2810;50.134;8.626;2023-10-13T03:48:04;15.80;99.90
5576;DHT22;2810;50.134;8.626;2023-10-13T03:50:40;15.80;99.90
5576;DHT22;2810;50.134;8.626;2023-10-13T03:53:12;15.80;99.90
5576;DHT22;2810;50.134;8.626;2023-10-13T03:55:38;15.80;99.90
5576;DHT22;2810;50.134;8.626;2023-10-13T03:58:04;15.80;99.90
5576;DHT22;2810;50.134;8.626;2023-10-13T04:00:29;15.80;99.90
5576;DHT22;2810;50.134;8.626;2023-10-13T04:02:56;15.80;99.90
5576;DHT22;2810;50.134;8.626;2023-10-13T04:05:29;15.80;99.90
5576;DHT22;2810;50.134;8.626;2023-10-13T04:08:06;15.80;99.90
5576;DHT22;2810;50.134;8.626;2023-10-13T04:10:54;15.80;99.90
5576;DHT22;2810;50.134;8.626;2023-10-13T04:13:20;15.80;99.90
5576;DHT22;2810;50.134;8.626;2023-10-13T04:16:06;15.80;99.90
5576;DHT22;2810;50.134;8.626;2023-10-13T04:18:47;15.80;99.90
5576;DHT22;2810;50.134;8.626;2023-10-13T04:21:25;15.80;99.90
5576;DHT22;2810;50.134;8.626;2023-10-13T04:24:22;15.80;99.90
5576;DHT22;2810;50.134;8.626;2023-10-13T04:27:03;15.80;99.90
5576;DHT22;2810;50.134;8.626;2023-10-13T04:29:38;15.80;99.90
5576;DHT22;2810;50.134;8.626;2023-10-13T04:32:22;15.80;99.90
5576;DHT22;2810;50.134;8.626;2023-10-13T04:34:54;15.80;99.90
5576;DHT22;2810;50.134;8.626;2023-10-13T04:37:24;15.80;99.90
5576;DHT22;2810;50.134;8.626;2023-10-13T04:39:58;15.80;99.90
5576;DHT22;2810;50.134;8.626;2023-10-13T04:42:35;15.80;99.90
5576;DHT22;2810;50.134;8.626;2023-10-13T04:45:30;15.80;99.90
5576;DHT22;2810;50.134;8.626;2023-10-13T04:47:56;15.80;99.90
5576;DHT22;2810;50.134;8.626;2023-10-13T04:50:40;15.90;99.90
5576;DHT22;2810;50.134;8.626;2023-10-13T04:53:12;15.90;99.90
5576;DHT22;2810;50.134;8.626;2023-10-13T04:56:01;15.90;99.90
5576;DHT22;2810;50.134;8.626;2023-10-13T04:58:33;15.90;99.90
5576;DHT22;2810;50.134;8.626;2023-10-13T05:01:01;15.90;99.90
5576;DHT22;2810;50.134;8.626;2023-10-13T05:03:46;15.90;99.90
5576;DHT22;2810;50.134;8.626;2023-10-13T05:06:31;15.90;99.90
5576;DHT22;2810;50.134;8.626;2023-10-13T05:09:09;15.90;99.90
5576;DHT22;2810;50.134;8.626;2023-10-13T05:12:06;15.90;99.90
5576;DHT22;2810;50.134;8.626;2023-10-13T05:14:54;15.90;99.90
5576;DHT22;2810;50.134;8.626;2023-10-13T05:17:38;16.00;99.90
5576;DHT22;2810;50.134;8.626;2023-10-13T05:20:22;16.00;99.90
5576;DHT22;2810;50.134;8.626;2023-10-13T05:23:06;16.30;99.90
5576;DHT22;2810;50.134;8.626;2023-10-13T05:25:50;15.90;99.90
5576;DHT22;2810;50.134;8.626;2023-10-13T05:28:34;16.00;99.90
5576;DHT22;2810;50.134;8.626;2023-10-13T05:31:19;16.00;99.90
5576;DHT22;2810;50.134;8.626;2023-10-13T05:34:03;16.00;99.90
5576;DHT22;2810;50.134;8.626;2023-10-13T05:36:47;16.10;99.90
5576;DHT22;2810;50.134;8.626;2023-10-13T05:39:31;16.10;99.90
5576;DHT22;2810;50.134;8.626;2023-10-13T05:42:16;16.10;99.90
5576;DHT22;2810;50.134;8.626;2023-10-13T05:45:00;16.10;99.90
5576;DHT22;2810;50.134;8.626;2023-10-13T05:47:44;16.10;99.90
5576;DHT22;2810;50.134;8.626;2023-10-13T05:50:10;16.10;99.90
5576;DHT22;2810;50.134;8.626;2023-10-13T05:52:50;16.10;99.90
5576;DHT22;2810;50.134;8.626;2023-10-13T05:55:22;16.10;99.90
5576;DHT22;2810;50.134;8.626;2023-10-13T05:58:06;16.10;99.90
5576;DHT22;2810;50.134;8.626;2023-10-13T06:00:50;16.10;99.90
5576;DHT22;2810;50.134;8.626;2023-10-13T06:03:34;16.10;99.90
5576;DHT22;2810;50.134;8.626;2023-10-13T06:06:18;16.10;99.90
5576;DHT22;2810;50.134;8.626;2023-10-13T06:09:02;16.10;99.90
5576;DHT22;2810;50.134;8.626;2023-10-13T06:11:47;16.10;99.90
5576;DHT22;2810;50.134;8.626;2023-10-13T06:14:31;16.10;99.90
5576;DHT22;2810;50.134;8.626;2023-10-13T06:17:15;16.40;99.90
5576;DHT22;2810;50.134;8.626;2023-10-13T06:19:59;16.20;99.90
5576;DHT22;2810;50.134;8.626;2023-10-13T06:22:46;16.20;99.90
5576;DHT22;2810;50.134;8.626;2023-10-13T06:25:30;16.20;99.90
5576;DHT22;2810;50.134;8.626;2023-10-13T06:28:14;16.20;99.90
5576;DHT22;2810;50.134;8.626;2023-10-13T06:33:34;16.30;99.90
5576;DHT22;2810;50.134;8.626;2023-10-13T06:36:03;16.40;99.90
5576;DHT22;2810;50.134;8.626;2023-10-13T06:38:34;16.40;99.90
5576;DHT22;2810;50.134;8.626;2023-10-13T06:41:05;16.40;99.90
5576;DHT22;2810;50.134;8.626;2023-10-13T06:43:32;16.50;99.90
5576;DHT22;2810;50.134;8.626;2023-10-13T06:45:58;16.50;99.90
5576;DHT22;2810;50.134;8.626;2023-10-13T06:48:26;16.50;99.90
5576;DHT22;2810;50.134;8.626;2023-10-13T06:50:52;16.60;99.90
5576;DHT22;2810;50.134;8.626;2023-10-13T06:53:20;16.60;99.90
5576;DHT22;2810;50.134;8.626;2023-10-13T06:55:46;16.70;99.90
5576;DHT22;2810;50.134;8.626;2023-10-13T06:58:18;16.80;99.90
5576;DHT22;2810;50.134;8.626;2023-10-13T07:00:49;16.80;99.90
5576;DHT22;2810;50.134;8.626;2023-10-13T07:03:23;16.80;99.90
5576;DHT22;2810;50.134;8.626;2023-10-13T07:05:50;16.90;99.90
5576;DHT22;2810;50.134;8.626;2023-10-13T07:08:16;17.10;99.90
5576;DHT22;2810;50.134;8.626;2023-10-13T07:10:52;17.10;99.90
5576;DHT22;2810;50.134;8.626;2023-10-13T07:13:43;17.00;99.90
5576;DHT22;2810;50.134;8.626;2023-10-13T07:16:15;17.00;99.90
5576;DHT22;2810;50.134;8.626;2023-10-13T07:18:41;17.10;99.90
5576;DHT22;2810;50.134;8.626;2023-10-13T07:21:18;17.10;99.90
5576;DHT22;2810;50.134;8.626;2023-10-13T07:23:59;17.10;99.90
5576;DHT22;2810;50.134;8.626;2023-10-13T07:26:34;17.40;99.90
5576;DHT22;2810;50.134;8.626;2023-10-13T07:29:00;17.10;99.90
5576;DHT22;2810;50.134;8.626;2023-10-13T07:31:25;17.20;99.90
5576;DHT22;2810;50.134;8.626;2023-10-13T07:33:52;17.20;99.90
5576;DHT22;2810;50.134;8.626;2023-10-13T07:36:30;17.20;99.90
5576;DHT22;2810;50.134;8.626;2023-10-13T07:38:58;17.20;99.90
5576;DHT22;2810;50.134;8.626;2023-10-13T07:41:46;17.20;99.90
5576;DHT22;2810;50.134;8.626;2023-10-13T07:44:17;17.30;99.90
5576;DHT22;2810;50.134;8.626;2023-10-13T07:46:45;17.40;99.90
5576;DHT22;2810;50.134;8.626;2023-10-13T07:49:22;17.50;99.90
5576;DHT22;2810;50.134;8.626;2023-10-13T07:51:49;17.70;99.90
5576;DHT22;2810;50.134;8.626;2023-10-13T07:54:16;17.80;99.90
5576;DHT22;2810;50.134;8.626;2023-10-13T07:56:48;17.90;99.90
5576;DHT22;2810;50.134;8.626;2023-10-13T07:59:13;18.30;99.90
5576;DHT22;2810;50.134;8.626;2023-10-13T08:01:42;18.10;99.90
5576;DHT22;2810;50.134;8.626;2023-10-13T08:04:11;18.20;99.90
5576;DHT22;2810;50.134;8.626;2023-10-13T08:06:37;18.40;99.90
5576;DHT22;2810;50.134;8.626;2023-10-13T08:09:03;18.40;98.40
5576;DHT22;2810;50.134;8.626;2023-10-13T08:11:35;18.40;98.00
5576;DHT22;2810;50.134;8.626;2023-10-13T08:14:01;18.50;96.10
5576;DHT22;2810;50.134;8.626;2023-10-13T08:16:47;18.60;95.70
5576;DHT22;2810;50.134;8.626;2023-10-13T08:19:22;19.00;94.40
5576;DHT22;2810;50.134;8.626;2023-10-13T08:21:58;19.10;82.00
5576;DHT22;2810;50.134;8.626;2023-10-13T08:24:50;19.60;57.90
5576;DHT22;2810;50.134;8.626;2023-10-13T08:27:19;19.70;45.40
5576;DHT22;2810;50.134;8.626;2023-10-13T08:30:02;19.60;49.60
5576;DHT22;2810;50.134;8.626;2023-10-13T08:32:28;19.70;48.10
5576;DHT22;2810;50.134;8.626;2023-10-13T08:34:54;19.80;43.90
5576;DHT22;2810;50.134;8.626;2023-10-13T08:37:20;19.80;42.10
5576;DHT22;2810;50.134;8.626;2023-10-13T08:39:51;19.90;40.10
5576;DHT22;2810;50.134;8.626;2023-10-13T08:45:09;20.10;36.60
5576;DHT22;2810;50.134;8.626;2023-10-13T08:47:59;20.20;34.70
5576;DHT22;2810;50.134;8.626;2023-10-13T08:50:37;20.10;35.30
5576;DHT22;2810;50.134;8.626;2023-10-13T08:53:32;20.10;28.90
5576;DHT22;2810;50.134;8.626;2023-10-13T08:56:33;20.20;25.40
5576;DHT22;2810;50.134;8.626;2023-10-13T08:59:00;20.40;13.10
5576;DHT22;2810;50.134;8.626;2023-10-13T09:01:30;20.60;1.00
5576;DHT22;2810;50.134;8.626;2023-10-13T09:04:12;21.20;1.00
5576;DHT22;2810;50.134;8.626;2023-10-13T09:06:47;21.80;1.00
5576;DHT22;2810;50.134;8.626;2023-10-13T09:09:28;22.50;1.00
5576;DHT22;2810;50.134;8.626;2023-10-13T09:14:52;23.10;99.90
5576;DHT22;2810;50.134;8.626;2023-10-13T09:17:24;24.50;25.90
5576;DHT22;2810;50.134;8.626;2023-10-13T09:20:02;25.20;99.90
5576;DHT22;2810;50.134;8.626;2023-10-13T09:22:47;25.50;99.90
5576;DHT22;2810;50.134;8.626;2023-10-13T09:25:36;25.90;99.90
5576;DHT22;2810;50.134;8.626;2023-10-13T09:28:12;24.90;1.00
5576;DHT22;2810;50.134;8.626;2023-10-13T09:30:49;24.20;99.90
5576;DHT22;2810;50.134;8.626;2023-10-13T09:33:19;23.50;99.90
5576;DHT22;2810;50.134;8.626;2023-10-13T09:35:53;22.80;1.00
5576;DHT22;2810;50.134;8.626;2023-10-13T09:38:19;22.60;1.00
5576;DHT22;2810;50.134;8.626;2023-10-13T09:40:46;22.50;99.90
5576;DHT22;2810;50.134;8.626;2023-10-13T09:43:27;22.60;99.90
5576;DHT22;2810;50.134;8.626;2023-10-13T09:46:00;22.40;99.90
5576;DHT22;2810;50.134;8.626;2023-10-13T09:48:43;22.00;99.90
5576;DHT22;2810;50.134;8.626;2023-10-13T09:51:20;22.10;99.90
5576;DHT22;2810;50.134;8.626;2023-10-13T09:53:48;23.20;1.00
5576;DHT22;2810;50.134;8.626;2023-10-13T09:56:25;24.60;1.00
5576;DHT22;2810;50.134;8.626;2023-10-13T09:58:59;26.00;99.90
5576;DHT22;2810;50.134;8.626;2023-10-13T10:01:29;26.40;17.60
5576;DHT22;2810;50.134;8.626;2023-10-13T10:04:08;25.90;1.00
5576;DHT22;2810;50.134;8.626;2023-10-13T10:06:35;25.50;99.90
5576;DHT22;2810;50.134;8.626;2023-10-13T10:09:10;26.30;99.90
5576;DHT22;2810;50.134;8.626;2023-10-13T10:11:48;27.20;99.90
5576;DHT22;2810;50.134;8.626;2023-10-13T10:14:19;28.00;99.90
5576;DHT22;2810;50.134;8.626;2023-10-13T10:19:25;28.40;99.90
5576;DHT22;2810;50.134;8.626;2023-10-13T10:22:04;28.20;99.90
5576;DHT22;2810;50.134;8.626;2023-10-13T10:24:55;27.80;99.90
5576;DHT22;2810;50.134;8.626;2023-10-13T10:27:24;27.30;99.90
5576;DHT22;2810;50.134;8.626;2023-10-13T10:29:53;26.80;99.90
5576;DHT22;2810;50.134;8.626;2023-10-13T10:32:19;26.50;1.00
5576;DHT22;2810;50.134;8.626;2023-10-13T10:34:44;25.80;1.00
5576;DHT22;2810;50.134;8.626;2023-10-13T10:37:10;25.30;99.90
5576;DHT22;2810;50.134;8.626;2023-10-13T10:39:37;25.30;99.90
5576;DHT22;2810;50.134;8.626;2023-10-13T10:42:10;25.10;99.90
5576;DHT22;2810;50.134;8.626;2023-10-13T10:44:54;25.00;99.90
5576;DHT22;2810;50.134;8.626;2023-10-13T10:47:30;24.80;99.90
5576;DHT22;2810;50.134;8.626;2023-10-13T10:49:59;24.40;99.90
5576;DHT22;2810;50.134;8.626;2023-10-13T10:52:43;24.00;1.00
5576;DHT22;2810;50.134;8.626;2023-10-13T10:55:08;24.00;28.60
5576;DHT22;2810;50.134;8.626;2023-10-13T10:57:36;23.70;91.30
5576;DHT22;2810;50.134;8.626;2023-10-13T11:00:18;23.70;16.40
5576;DHT22;2810;50.134;8.626;2023-10-13T11:02:53;23.60;1.00
5576;DHT22;2810;50.134;8.626;2023-10-13T11:05:20;24.00;1.00
5576;DHT22;2810;50.134;8.626;2023-10-13T11:07:45;24.40;1.00
5576;DHT22;2810;50.134;8.626;2023-10-13T11:10:16;24.40;1.00
5576;DHT22;2810;50.134;8.626;2023-10-13T11:12:58;24.80;99.90
5576;DHT22;2810;50.134;8.626;2023-10-13T11:15:44;25.50;99.90
5576;DHT22;2810;50.134;8.626;2023-10-13T11:18:10;25.70;99.90
5576;DHT22;2810;50.134;8.626;2023-10-13T11:20:43;25.60;99.90
5576;DHT22;2810;50.134;8.626;2023-10-13T11:23:13;25.60;99.90
5576;DHT22;2810;50.134;8.626;2023-10-13T11:25:39;25.20;99.90
5576;DHT22;2810;50.134;8.626;2023-10-13T11:28:14;24.80;99.90
5576;DHT22;2810;50.134;8.626;2023-10-13T11:30:43;24.60;99.90
5576;DHT22;2810;50.134;8.626;2023-10-13T11:33:11;24.50;99.90
5576;DHT22;2810;50.134;8.626;2023-10-13T11:35:37;24.40;99.90
5576;DHT22;2810;50.134;8.626;2023-10-13T11:38:22;24.30;99.90
5576;DHT22;2810;50.134;8.626;2023-10-13T11:40:51;24.20;1.00
5576;DHT22;2810;50.134;8.626;2023-10-13T11:43:35;24.10;1.00
5576;DHT22;2810;50.134;8.626;2023-10-13T11:46:07;24.20;1.00
5576;DHT22;2810;50.134;8.626;2023-10-13T11:48:35;24.40;1.00
5576;DHT22;2810;50.134;8.626;2023-10-13T11:51:04;24.50;1.00
5576;DHT22;2810;50.134;8.626;2023-10-13T11:53:36;24.60;1.00
5576;DHT22;2810;50.134;8.626;2023-10-13T11:56:02;24.70;1.00
5576;DHT22;2810;50.134;8.626;2023-10-13T11:58:35;24.50;1.00
5576;DHT22;2810;50.134;8.626;2023-10-13T12:01:00;24.60;1.00
5576;DHT22;2810;50.134;8.626;2023-10-13T12:03:48;24.40;1.00
5576;DHT22;2810;50.134;8.626;2023-10-13T12:06:33;24.40;1.00
5576;DHT22;2810;50.134;8.626;2023-10-13T12:09:02;24.50;1.00
5576;DHT22;2810;50.134;8.626;2023-10-13T12:11:47;24.60;1.00
5576;DHT22;2810;50.134;8.626;2023-10-13T12:14:16;24.70;1.00
5576;DHT22;2810;50.134;8.626;2023-10-13T12:16:51;24.80;1.00
5576;DHT22;2810;50.134;8.626;2023-10-13T12:19:17;24.70;1.00
5576;DHT22;2810;50.134;8.626;2023-10-13T12:21:43;24.80;1.00
5576;DHT22;2810;50.134;8.626;2023-10-13T12:24:09;24.50;1.00
5576;DHT22;2810;50.134;8.626;2023-10-13T12:26:46;24.40;1.00
5576;DHT22;2810;50.134;8.626;2023-10-13T12:29:12;24.40;1.00
5576;DHT22;2810;50.134;8.626;2023-10-13T12:31:48;24.30;1.00
5576;DHT22;2810;50.134;8.626;2023-10-13T12:34:30;24.20;20.50
5576;DHT22;2810;50.134;8.626;2023-10-13T12:37:15;24.20;4.40
5576;DHT22;2810;50.134;8.626;2023-10-13T12:39:59;24.30;1.00
5576;DHT22;2810;50.134;8.626;2023-10-13T12:42:43;24.30;1.00
5576;DHT22;2810;50.134;8.626;2023-10-13T12:45:27;24.30;1.00
5576;DHT22;2810;50.134;8.626;2023-10-13T12:48:11;24.30;1.00
5576;DHT22;2810;50.134;8.626;2023-10-13T12:50:55;24.30;1.00
5576;DHT22;2810;50.134;8.626;2023-10-13T12:53:33;24.30;1.00
5576;DHT22;2810;50.134;8.626;2023-10-13T12:55:58;24.30;1.00
5576;DHT22;2810;50.134;8.626;2023-10-13T12:58:24;24.30;1.00
5576;DHT22;2810;50.134;8.626;2023-10-13T13:00:52;24.30;1.00
5576;DHT22;2810;50.134;8.626;2023-10-13T13:03:26;24.50;1.00
5576;DHT22;2810;50.134;8.626;2023-10-13T13:05:54;24.40;1.00
5576;DHT22;2810;50.134;8.626;2023-10-13T13:08:21;24.40;1.00
5576;DHT22;2810;50.134;8.626;2023-10-13T13:10:48;24.40;1.00
5576;DHT22;2810;50.134;8.626;2023-10-13T13:13:13;24.40;1.00
5576;DHT22;2810;50.134;8.626;2023-10-13T13:15:42;24.60;1.00
5576;DHT22;2810;50.134;8.626;2023-10-13T13:18:07;25.00;1.00
5576;DHT22;2810;50.134;8.626;2023-10-13T13:20:39;24.90;1.00
5576;DHT22;2810;50.134;8.626;2023-10-13T13:23:08;24.90;1.00
5576;DHT22;2810;50.134;8.626;2023-10-13T13:25:37;25.00;1.00
5576;DHT22;2810;50.134;8.626;2023-10-13T13:28:08;25.10;1.00
5576;DHT22;2810;50.134;8.626;2023-10-13T13:30:35;25.00;99.90
5576;DHT22;2810;50.134;8.626;2023-10-13T13:33:03;24.90;99.90
5576;DHT22;2810;50.134;8.626;2023-10-13T13:35:38;24.90;99.90
5576;DHT22;2810;50.134;8.626;2023-10-13T13:38:04;25.00;99.90
5576;DHT22;2810;50.134;8.626;2023-10-13T13:40:38;25.10;99.90
5576;DHT22;2810;50.134;8.626;2023-10-13T13:43:04;25.20;99.90
5576;DHT22;2810;50.134;8.626;2023-10-13T13:45:30;25.60;99.90
5576;DHT22;2810;50.134;8.626;2023-10-13T13:47:57;25.50;1.00
5576;DHT22;2810;50.134;8.626;2023-10-13T13:50:24;25.60;99.90
5576;DHT22;2810;50.134;8.626;2023-10-13T13:52:53;25.70;99.90
5576;DHT22;2810;50.134;8.626;2023-10-13T13:55:21;25.60;68.90
5576;DHT22;2810;50.134;8.626;2023-10-13T13:57:47;25.60;99.60
5576;DHT22;2810;50.134;8.626;2023-10-13T14:00:15;25.50;99.90
5576;DHT22;2810;50.134;8.626;2023-10-13T14:02:48;25.30;99.90
5576;DHT22;2810;50.134;8.626;2023-10-13T14:05:14;25.10;99.90
5576;DHT22;2810;50.134;8.626;2023-10-13T14:07:43;25.00;99.90
5576;DHT22;2810;50.134;8.626;2023-10-13T14:10:17;24.90;99.90
5576;DHT22;2810;50.134;8.626;2023-10-13T14:13:19;24.80;99.90
5576;DHT22;2810;50.134;8.626;2023-10-13T14:15:47;24.70;99.90
5576;DHT22;2810;50.134;8.626;2023-10-13T14:18:13;24.80;99.90
5576;DHT22;2810;50.134;8.626;2023-10-13T14:20:41;24.50;99.90
5576;DHT22;2810;50.134;8.626;2023-10-13T14:23:08;24.80;99.90
5576;DHT22;2810;50.134;8.626;2023-10-13T14:25:37;24.40;99.90
5576;DHT22;2810;50.134;8.626;2023-10-13T14:28:04;24.60;99.90
5576;DHT22;2810;50.134;8.626;2023-10-13T14:30:30;24.40;99.90
5576;DHT22;2810;50.134;8.626;2023-10-13T14:32:56;24.40;99.90
5576;DHT22;2810;50.134;8.626;2023-10-13T14:35:23;24.50;99.90
5576;DHT22;2810;50.134;8.626;2023-10-13T14:37:51;24.50;99.90
5576;DHT22;2810;50.134;8.626;2023-10-13T14:40:17;24.70;99.90
5576;DHT22;2810;50.134;8.626;2023-10-13T14:42:47;24.70;99.90
5576;DHT22;2810;50.134;8.626;2023-10-13T14:45:13;24.80;99.90
5576;DHT22;2810;50.134;8.626;2023-10-13T14:47:41;24.90;99.90
5576;DHT22;2810;50.134;8.626;2023-10-13T14:50:07;25.10;99.60
5576;DHT22;2810;50.134;8.626;2023-10-13T14:52:39;25.10;98.60
5576;DHT22;2810;50.134;8.626;2023-10-13T14:55:05;25.10;98.60
5576;DHT22;2810;50.134;8.626;2023-10-13T14:57:32;25.10;98.30
5576;DHT22;2810;50.134;8.626;2023-10-13T15:00:03;25.10;97.50
5576;DHT22;2810;50.134;8.626;2023-10-13T15:02:28;25.10;96.90
5576;DHT22;2810;50.134;8.626;2023-10-13T15:04:54;25.10;97.60
5576;DHT22;2810;50.134;8.626;2023-10-13T15:07:19;25.10;97.70
5576;DHT22;2810;50.134;8.626;2023-10-13T15:09:45;25.00;97.90
5576;DHT22;2810;50.134;8.626;2023-10-13T15:12:10;24.90;98.80
5576;DHT22;2810;50.134;8.626;2023-10-13T15:14:37;24.80;98.80
5576;DHT22;2810;50.134;8.626;2023-10-13T15:17:02;24.70;98.70
5576;DHT22;2810;50.134;8.626;2023-10-13T15:19:31;24.60;98.70
5576;DHT22;2810;50.134;8.626;2023-10-13T15:22:02;24.50;98.70
5576;DHT22;2810;50.134;8.626;2023-10-13T15:24:27;24.50;98.30
5576;DHT22;2810;50.134;8.626;2023-10-13T15:26:53;24.40;98.10
5576;DHT22;2810;50.134;8.626;2023-10-13T15:29:27;24.40;97.90
5576;DHT22;2810;50.134;8.626;2023-10-13T15:32:00;24.40;98.20
5576;DHT22;2810;50.134;8.626;2023-10-13T15:34:26;24.30;97.20
5576;DHT22;2810;50.134;8.626;2023-10-13T15:36:52;24.30;97.20
5576;DHT22;2810;50.134;8.626;2023-10-13T15:39:20;24.30;96.50
5576;DHT22;2810;50.134;8.626;2023-10-13T15:41:52;24.30;97.00
5576;DHT22;2810;50.134;8.626;2023-10-13T15:44:26;24.20;96.50
5576;DHT22;2810;50.134;8.626;2023-10-13T15:46:55;24.20;96.60
5576;DHT22;2810;50.134;8.626;2023-10-13T15:49:21;24.20;95.80
5576;DHT22;2810;50.134;8.626;2023-10-13T15:51:53;24.10;96.20
5576;DHT22;2810;50.134;8.626;2023-10-13T15:54:21;24.20;96.10
5576;DHT22;2810;50.134;8.626;2023-10-13T15:56:48;24.10;96.10
5576;DHT22;2810;50.134;8.626;2023-10-13T15:59:14;24.00;96.40
5576;DHT22;2810;50.134;8.626;2023-10-13T16:01:40;24.00;96.50
5576;DHT22;2810;50.134;8.626;2023-10-13T16:04:06;24.00;96.60
5576;DHT22;2810;50.134;8.626;2023-10-13T16:06:42;23.80;96.60
5576;DHT22;2810;50.134;8.626;2023-10-13T16:09:14;23.80;96.80
5576;DHT22;2810;50.134;8.626;2023-10-13T16:11:41;23.70;96.90
5576;DHT22;2810;50.134;8.626;2023-10-13T16:14:07;23.70;97.40
5576;DHT22;2810;50.134;8.626;2023-10-13T16:16:36;23.70;97.50
5576;DHT22;2810;50.134;8.626;2023-10-13T16:19:01;23.60;97.80
5576;DHT22;2810;50.134;8.626;2023-10-13T16:21:30;23.50;98.50
5576;DHT22;2810;50.134;8.626;2023-10-13T16:23:55;23.40;98.40
5576;DHT22;2810;50.134;8.626;2023-10-13T16:26:21;23.30;98.80
5576;DHT22;2810;50.134;8.626;2023-10-13T16:28:50;23.30;99.40
5576;DHT22;2810;50.134;8.626;2023-10-13T16:31:25;23.10;99.90
5576;DHT22;2810;50.134;8.626;2023-10-13T16:33:54;23.10;99.90
5576;DHT22;2810;50.134;8.626;2023-10-13T16:36:27;23.00;99.90
5576;DHT22;2810;50.134;8.626;2023-10-13T16:38:53;22.90;99.90
5576;DHT22;2810;50.134;8.626;2023-10-13T16:41:26;22.80;99.90
5576;DHT22;2810;50.134;8.626;2023-10-13T16:43:52;22.70;99.90
5576;DHT22;2810;50.134;8.626;2023-10-13T16:46:17;22.60;99.90
5576;DHT22;2810;50.134;8.626;2023-10-13T16:48:43;22.50;99.90